Time;durP1;ratioP1;P1;durP2;ratioP2;P2;SDS_P1;SDS_P2;PMS_P1;PMS_P2;Temp;Humidity;BMP_temperature;BMP_pressure;BME280_temperature;BME280_humidity;BME280_pressure;Samples;Min_cycle;Max_cycle;Signal;HPM_P1;HPM_P2
2022/08/13 06:05:02;;;;;;;;;3.00;3.00;;;;;25.43;27.72;101043.69;5015878;28;45293;-62
2022/08/13 06:07:27;;;;;;;;;2.67;2.67;;;;;25.42;27.46;101051.03;5015129;28;45756;-62
2022/08/13 06:09:53;;;;;;;;;3.00;3.00;;;;;25.43;28.06;101051.88;5018252;28;46251;-64
2022/08/13 06:12:18;;;;;;;;;3.33;3.33;;;;;25.42;28.00;101048.31;5017733;28;45406;-63
2022/08/13 06:14:45;;;;;;;;;3.67;3.67;;;;;25.42;27.41;101047.44;5015639;28;67760;-62
2022/08/13 06:17:12;;;;;;;;;4.00;4.00;;;;;25.40;27.65;101054.94;5019071;28;45732;-62
2022/08/13 06:19:38;;;;;;;;;1.67;1.67;;;;;25.40;28.12;101054.94;5015696;28;46398;-63
2022/08/13 06:22:04;;;;;;;;;2.67;2.67;;;;;25.42;28.25;101053.75;5013600;28;45451;-63
2022/08/13 06:24:32;;;;;;;;;4.33;4.33;;;;;25.43;28.28;101049.13;5016309;28;45275;-63
2022/08/13 06:27:00;;;;;;;;;1.00;1.00;;;;;25.45;27.83;101044.41;5014741;28;45615;-63
2022/08/13 06:29:27;;;;;;;;;3.00;2.67;;;;;25.46;28.19;101046.09;5019069;28;46040;-63
2022/08/13 06:31:55;;;;;;;;;3.00;3.00;;;;;25.51;28.33;101051.03;5011791;28;45709;-63
2022/08/13 06:34:20;;;;;;;;;4.00;4.00;;;;;25.55;28.37;101046.94;5014636;28;45424;-63
2022/08/13 06:36:46;;;;;;;;;3.00;3.00;;;;;25.62;28.28;101055.28;5017577;28;45494;-63
2022/08/13 06:39:12;;;;;;;;;4.00;4.00;;;;;25.70;28.22;101052.56;5018421;28;46903;-63
2022/08/13 06:41:39;;;;;;;;;2.67;1.00;;;;;25.80;27.71;101052.38;5011530;28;45485;-63
2022/08/13 06:44:05;;;;;;;;;2.67;2.67;;;;;25.90;28.11;101059.38;5015893;28;45533;-63
2022/08/13 06:46:31;;;;;;;;;4.00;4.00;;;;;26.02;27.55;101056.28;5016580;28;45306;-63
2022/08/13 06:49:01;;;;;;;;;4.33;4.33;;;;;26.15;28.02;101053.06;5008598;28;66417;-64
2022/08/13 06:51:26;;;;;;;;;2.33;2.33;;;;;26.29;27.16;101048.78;5016618;28;45575;-64
2022/08/13 06:53:54;;;;;;;;;3.67;3.67;;;;;26.41;27.63;101036.47;5018829;28;45419;-63
2022/08/13 06:56:22;;;;;;;;;4.00;4.00;;;;;26.58;27.28;101042.72;5019721;28;45324;-64
2022/08/13 06:58:49;;;;;;;;;5.00;3.00;;;;;26.78;27.15;101050.50;5013102;28;46057;-64
2022/08/13 07:01:17;;;;;;;;;3.67;3.67;;;;;27.00;27.05;101052.44;5011487;28;45351;-64
2022/08/13 07:03:44;;;;;;;;;3.00;3.00;;;;;27.18;26.65;101046.72;5012642;28;45940;-64
2022/08/13 07:06:19;;;;;;;;;3.33;2.67;;;;;27.35;26.49;101049.31;5019327;28;45408;-64
2022/08/13 07:08:46;;;;;;;;;2.00;2.00;;;;;27.51;26.24;101051.13;5015610;28;46314;-64
2022/08/13 07:11:24;;;;;;;;;3.67;3.67;;;;;27.70;26.43;101064.31;5019147;28;45486;-63
2022/08/13 07:13:56;;;;;;;;;3.67;3.67;;;;;27.88;26.04;101055.75;5014178;28;45244;-64
2022/08/13 07:16:24;;;;;;;;;2.67;2.67;;;;;28.11;25.77;101052.16;5015059;28;46763;-65
2022/08/13 07:18:50;;;;;;;;;3.00;3.00;;;;;28.30;25.32;101058.94;5009304;28;46857;-64
2022/08/13 07:21:21;;;;;;;;;5.00;3.33;;;;;28.55;25.59;101055.94;5018943;28;45182;-64
2022/08/13 07:23:48;;;;;;;;;3.00;3.00;;;;;28.85;25.37;101059.53;5012764;28;45281;-63
2022/08/13 07:26:14;;;;;;;;;3.67;3.67;;;;;29.12;24.94;101051.63;5014736;28;45322;-64
2022/08/13 07:28:40;;;;;;;;;3.33;3.33;;;;;29.40;24.61;101048.19;5013557;28;46224;-64
2022/08/13 07:31:08;;;;;;;;;3.33;3.33;;;;;29.66;24.19;101057.66;5018073;28;45301;-64
2022/08/13 07:33:36;;;;;;;;;3.00;3.00;;;;;29.90;23.90;101058.34;5005275;28;45308;-63
2022/08/13 07:36:06;;;;;;;;;2.33;2.33;;;;;30.10;24.44;101061.22;5017717;28;45431;-64
2022/08/13 07:38:33;;;;;;;;;3.00;3.00;;;;;30.34;24.02;101073.63;5011131;28;46363;-64
2022/08/13 07:41:01;;;;;;;;;2.00;2.00;;;;;30.51;23.78;101069.53;5015480;28;45395;-64
2022/08/13 07:43:28;;;;;;;;;2.33;2.33;;;;;30.72;23.70;101065.00;5019065;28;45710;-63
2022/08/13 07:46:09;;;;;;;;;3.00;3.00;;;;;30.98;23.42;101068.91;5016392;28;45547;-63
2022/08/13 07:48:37;;;;;;;;;4.33;3.00;;;;;31.23;22.92;101062.91;5008039;28;46366;-63
2022/08/13 07:51:04;;;;;;;;;3.33;3.33;;;;;31.44;22.87;101070.13;5014362;28;45491;-64
2022/08/13 07:53:30;;;;;;;;;2.33;2.33;;;;;31.69;22.20;101062.13;5017614;28;45674;-64
2022/08/13 07:55:56;;;;;;;;;2.67;2.67;;;;;31.87;21.93;101064.25;5011886;28;45460;-64
2022/08/13 07:58:28;;;;;;;;;2.00;2.00;;;;;31.98;22.25;101060.00;5003591;28;46396;-63
2022/08/13 08:00:57;;;;;;;;;3.33;3.33;;;;;32.13;21.89;101062.56;5013270;28;45441;-64
2022/08/13 08:03:30;;;;;;;;;2.67;2.67;;;;;32.32;22.00;101060.88;5012096;28;45438;-63
2022/08/13 08:05:56;;;;;;;;;3.67;3.67;;;;;32.51;21.07;101059.09;5014593;28;45518;-64
2022/08/13 08:08:24;;;;;;;;;2.67;2.00;;;;;32.71;21.31;101070.06;5004636;28;46059;-63
2022/08/13 08:10:51;;;;;;;;;3.33;3.33;;;;;32.94;21.25;101069.56;5014599;28;45433;-63
2022/08/13 08:13:16;;;;;;;;;1.00;1.00;;;;;33.19;21.03;101066.03;5006691;28;68304;-63
2022/08/13 08:15:43;;;;;;;;;3.00;3.00;;;;;33.49;20.81;101065.44;5001552;28;65827;-63
2022/08/13 08:18:08;;;;;;;;;3.00;3.00;;;;;33.78;20.50;101065.84;5004018;28;46159;-63
2022/08/13 08:20:33;;;;;;;;;2.33;2.33;;;;;34.00;19.99;101065.50;5010572;28;57154;-64
2022/08/13 08:22:59;;;;;;;;;2.33;2.33;;;;;34.21;19.64;101073.34;5011864;28;62529;-63
2022/08/13 08:25:24;;;;;;;;;3.00;3.00;;;;;34.37;19.97;101062.84;5000665;28;66492;-63
2022/08/13 08:27:50;;;;;;;;;2.67;2.33;;;;;34.45;19.17;101068.88;5006335;28;46916;-64
2022/08/13 08:30:17;;;;;;;;;1.00;1.00;;;;;34.60;19.55;101067.63;5017470;28;45329;-63
2022/08/13 08:32:43;;;;;;;;;4.67;3.67;;;;;34.75;19.19;101073.63;5010966;28;45855;-64
2022/08/13 08:35:08;;;;;;;;;5.00;5.00;;;;;35.02;19.08;101080.75;5008177;28;45374;-63
2022/08/13 08:43:07;;;;;;;;;1.00;1.00;;;;;35.55;18.62;101070.88;5016150;28;45359;-63
2022/08/13 08:45:34;;;;;;;;;0.00;0.00;;;;;35.74;18.29;101068.88;5017347;28;45498;-63
2022/08/13 08:48:00;;;;;;;;;3.00;3.00;;;;;35.95;18.29;101067.47;5008192;28;47214;-63
2022/08/13 08:50:26;;;;;;;;;3.33;3.33;;;;;36.19;17.67;101067.44;5016038;28;45618;-64
2022/08/13 08:55:37;;;;;;;;;2.00;2.00;;;;;36.47;17.79;101079.75;5017345;28;45469;-64
2022/08/13 08:58:04;;;;;;;;;2.67;2.67;;;;;36.62;17.34;101082.00;5011748;28;68886;-63
2022/08/13 09:00:30;;;;;;;;;2.33;2.33;;;;;36.83;17.50;101077.75;5011354;28;45268;-63
2022/08/13 09:02:56;;;;;;;;;1.67;1.67;;;;;37.09;16.92;101073.53;5013066;28;45352;-63
2022/08/13 09:05:22;;;;;;;;;1.67;1.67;;;;;37.25;17.05;101071.94;5016575;28;59408;-63
2022/08/13 09:07:49;;;;;;;;;2.67;2.67;;;;;37.39;16.92;101073.31;5006572;28;46305;-64
2022/08/13 09:10:16;;;;;;;;;2.00;2.00;;;;;37.49;16.27;101072.66;5007582;28;45295;-64
2022/08/13 09:12:44;;;;;;;;;1.00;1.00;;;;;37.65;16.58;101067.38;4999426;28;45436;-64
2022/08/13 09:15:21;;;;;;;;;2.67;2.67;;;;;37.80;16.20;101075.16;5012150;28;45564;-64
2022/08/13 09:17:51;;;;;;;;;2.00;2.00;;;;;38.05;16.25;101069.16;5005486;28;46238;-63
2022/08/13 09:20:22;;;;;;;;;2.67;2.67;;;;;38.24;16.02;101066.94;5010815;28;45486;-64
2022/08/13 09:23:07;;;;;;;;;0.67;0.67;;;;;38.39;15.63;101060.75;5005642;28;45363;-64
2022/08/13 09:25:33;;;;;;;;;1.00;1.00;;;;;38.49;15.69;101072.00;5007554;28;45513;-63
2022/08/13 09:27:59;;;;;;;;;1.33;1.33;;;;;38.59;15.56;101068.50;5013741;28;46483;-64
2022/08/13 09:30:24;;;;;;;;;1.33;1.33;;;;;38.67;15.41;101064.44;5006917;28;45427;-64
2022/08/13 09:32:56;;;;;;;;;3.33;3.33;;;;;38.81;15.43;101067.69;5011144;28;45217;-63
2022/08/13 09:35:22;;;;;;;;;3.33;2.67;;;;;38.84;14.91;101068.03;5006390;28;45541;-63
2022/08/13 09:37:48;;;;;;;;;1.00;1.00;;;;;38.92;15.23;101063.09;5005589;28;45230;-63
2022/08/13 09:40:14;;;;;;;;;2.00;2.00;;;;;39.03;15.66;101065.72;5008357;28;45490;-64
2022/08/13 09:42:48;;;;;;;;;2.33;2.33;;;;;39.15;15.50;101070.28;5007122;28;45360;-64
2022/08/13 09:45:14;;;;;;;;;2.00;2.00;;;;;39.34;14.55;101063.28;5009914;28;45310;-64
2022/08/13 09:47:41;;;;;;;;;1.00;1.00;;;;;39.48;14.52;101065.66;5014054;28;47021;-64
2022/08/13 09:50:08;;;;;;;;;2.67;2.67;;;;;39.69;14.82;101059.16;5012175;28;45541;-64
2022/08/13 09:52:34;;;;;;;;;1.33;1.33;;;;;39.77;13.83;101043.09;5006006;28;45462;-64
2022/08/13 09:54:59;;;;;;;;;5.00;2.00;;;;;39.67;14.50;101055.81;5012467;28;56823;-64
2022/08/13 09:57:25;;;;;;;;;1.33;1.33;;;;;39.68;14.81;101057.47;5013551;28;71568;-63
2022/08/13 09:59:51;;;;;;;;;2.33;2.33;;;;;39.70;13.72;101057.25;5013261;28;45510;-64
2022/08/13 10:02:16;;;;;;;;;2.00;2.00;;;;;39.61;13.92;101044.88;5011048;28;45308;-63
2022/08/13 10:04:42;;;;;;;;;2.67;2.67;;;;;39.69;14.13;101045.25;5020490;28;48616;-64
2022/08/13 10:07:09;;;;;;;;;1.00;1.00;;;;;39.74;14.13;101041.69;5014957;28;46376;-64
2022/08/13 10:09:36;;;;;;;;;1.00;1.00;;;;;39.90;13.77;101044.56;5017815;28;45352;-65
2022/08/13 10:12:02;;;;;;;;;1.33;1.33;;;;;40.04;14.27;101043.00;5008704;28;45399;-64
2022/08/13 10:14:27;;;;;;;;;3.00;3.00;;;;;40.26;13.72;101037.28;5013192;28;46351;-64
2022/08/13 10:16:53;;;;;;;;;1.00;1.00;;;;;40.30;14.03;101041.22;5019700;28;72621;-64
2022/08/13 10:19:19;;;;;;;;;1.00;1.00;;;;;40.17;13.54;101039.75;5018886;28;45335;-64
2022/08/13 10:21:44;;;;;;;;;1.67;1.00;;;;;40.11;13.51;101037.22;5018303;28;45338;-63
2022/08/13 10:24:10;;;;;;;;;2.00;2.00;;;;;40.19;13.66;101039.47;5020390;28;63994;-63
2022/08/13 10:26:36;;;;;;;;;1.00;1.00;;;;;40.21;13.33;101034.50;5013663;28;46134;-63
2022/08/13 10:29:02;;;;;;;;;2.00;2.00;;;;;40.29;14.01;101027.56;5015075;28;45277;-64
2022/08/13 10:31:28;;;;;;;;;2.67;2.67;;;;;40.39;13.08;101030.41;5014212;28;45493;-64
2022/08/13 10:33:58;;;;;;;;;0.33;0.33;;;;;40.34;12.87;101033.16;5014249;28;45554;-64
2022/08/13 10:36:25;;;;;;;;;2.00;2.00;;;;;40.41;13.30;101030.13;5017164;28;46355;-64
2022/08/13 10:38:51;;;;;;;;;1.00;1.00;;;;;40.59;13.45;101038.00;5008951;28;45454;-64
2022/08/13 10:41:17;;;;;;;;;1.00;1.00;;;;;40.61;12.87;101033.03;5007650;28;45244;-63
2022/08/13 10:43:42;;;;;;;;;1.00;1.00;;;;;40.67;12.96;101040.25;5012868;28;58605;-63
2022/08/13 10:46:15;;;;;;;;;2.00;2.00;;;;;40.45;12.44;101029.28;5006001;28;46230;-63
2022/08/13 10:48:40;;;;;;;;;1.00;1.00;;;;;40.38;12.86;101027.84;5015463;28;47296;-63
2022/08/13 10:51:06;;;;;;;;;2.67;2.67;;;;;40.42;12.91;101023.41;5015210;28;66046;-62
2022/08/13 10:56:17;;;;;;;;;0.00;0.00;;;;;40.51;12.72;101016.22;5016128;28;45418;-63
2022/08/13 10:58:43;;;;;;;;;1.67;1.67;;;;;40.59;12.93;101015.72;5013014;28;45432;-64
2022/08/13 11:01:10;;;;;;;;;2.33;2.33;;;;;40.69;12.68;101009.31;5011531;28;45542;-63
2022/08/13 11:03:36;;;;;;;;;1.00;1.00;;;;;40.78;12.34;101009.63;5005390;28;46858;-63
2022/08/13 11:06:04;;;;;;;;;1.00;1.00;;;;;40.80;12.30;101005.47;5015815;28;45701;-63
2022/08/13 11:08:37;;;;;;;;;1.00;1.00;;;;;40.82;12.63;101016.31;5017990;28;45503;-63
2022/08/13 11:11:03;;;;;;;;;1.00;1.00;;;;;40.78;12.43;101015.22;5012444;28;46130;-65
2022/08/13 11:13:31;;;;;;;;;1.00;1.00;;;;;40.76;12.42;101012.72;5012082;28;45429;-64
2022/08/13 11:15:56;;;;;;;;;1.00;1.00;;;;;40.72;11.82;101017.16;5017656;28;46167;-63
2022/08/13 11:18:21;;;;;;;;;1.00;1.00;;;;;40.60;11.95;101009.03;5018679;28;45592;-64
2022/08/13 11:21:02;;;;;;;;;2.00;1.00;;;;;40.56;12.28;101013.50;5016903;28;45611;-63
2022/08/13 11:23:29;;;;;;;;;1.00;1.00;;;;;40.52;12.37;101006.78;5016813;28;45785;-63
2022/08/13 11:25:54;;;;;;;;;1.00;1.00;;;;;40.52;12.44;101009.56;5017696;28;45474;-63
2022/08/13 11:28:19;;;;;;;;;0.33;0.33;;;;;40.51;12.26;101010.66;5015959;28;45368;-63
2022/08/13 11:30:46;;;;;;;;;3.00;3.00;;;;;40.53;12.22;101002.06;5011380;28;63032;-63
2022/08/13 11:33:11;;;;;;;;;1.00;1.00;;;;;40.56;11.95;101007.06;5000981;28;45408;-62
2022/08/13 11:35:37;;;;;;;;;0.67;0.67;;;;;40.56;11.29;100998.72;5016878;28;73984;-63
2022/08/13 11:38:13;;;;;;;;;0.00;0.00;;;;;40.45;11.82;100992.25;5015741;28;69291;-65
2022/08/13 11:40:39;;;;;;;;;0.00;0.00;;;;;40.29;11.49;100988.56;5017059;28;45425;-63
2022/08/13 11:43:05;;;;;;;;;0.00;0.00;;;;;40.14;11.60;100981.81;5016165;28;45242;-63
2022/08/13 11:45:30;;;;;;;;;2.67;2.00;;;;;40.11;11.38;100987.91;5017576;28;58724;-63
2022/08/13 11:47:55;;;;;;;;;1.00;1.00;;;;;40.08;12.09;100985.69;5016608;28;67328;-63
2022/08/13 11:50:21;;;;;;;;;0.00;0.00;;;;;40.07;12.16;100995.13;5016376;28;67167;-63
2022/08/13 11:52:46;;;;;;;;;0.67;0.67;;;;;40.01;12.23;100977.56;5012800;28;59475;-63
2022/08/13 11:55:11;;;;;;;;;1.00;1.00;;;;;40.00;11.30;100981.44;5017442;28;71034;-63
2022/08/13 11:57:37;;;;;;;;;0.33;0.33;;;;;39.89;11.80;100984.44;5016032;28;45520;-63
2022/08/13 12:00:05;;;;;;;;;1.00;1.00;;;;;39.85;11.58;100978.56;5013233;28;45664;-63
2022/08/13 12:02:30;;;;;;;;;0.33;0.33;;;;;39.76;12.02;100974.63;5001154;28;45435;-63
2022/08/13 12:04:55;;;;;;;;;1.00;1.00;;;;;39.62;11.56;100972.28;5019686;28;46037;-63
2022/08/13 12:07:25;;;;;;;;;0.67;0.67;;;;;39.48;12.39;100971.06;5016354;28;70316;-63
2022/08/13 12:09:50;;;;;;;;;0.67;0.67;;;;;39.38;12.20;100972.66;5017181;28;45436;-63
2022/08/13 12:12:16;;;;;;;;;1.00;1.00;;;;;39.20;12.17;100973.91;5013795;28;45571;-63
2022/08/13 12:14:41;;;;;;;;;0.33;0.33;;;;;39.12;11.89;100957.66;5016857;28;71107;-63
2022/08/13 12:17:07;;;;;;;;;1.00;1.00;;;;;39.08;12.21;100961.25;5016583;28;69083;-63
2022/08/13 12:19:33;;;;;;;;;0.00;0.00;;;;;39.02;12.18;100955.66;5018239;28;45399;-63
2022/08/13 12:22:00;;;;;;;;;0.00;0.00;;;;;38.89;11.88;100956.06;5015260;28;45519;-63
2022/08/13 12:24:26;;;;;;;;;0.00;0.00;;;;;38.58;11.96;100958.53;5019163;28;46146;-64
2022/08/13 12:26:51;;;;;;;;;0.00;0.00;;;;;38.49;12.51;100952.56;5014085;28;45355;-64
2022/08/13 12:29:16;;;;;;;;;0.00;0.00;;;;;38.48;12.35;100956.44;5018258;28;60272;-63
2022/08/13 12:31:42;;;;;;;;;2.00;2.00;;;;;38.53;12.05;100945.41;5012423;28;64153;-64
2022/08/13 12:34:07;;;;;;;;;0.67;0.67;;;;;38.61;12.79;100948.81;5018153;28;69657;-64
2022/08/13 12:36:32;;;;;;;;;0.67;0.67;;;;;38.67;12.56;100948.63;5018193;28;45256;-64
2022/08/13 12:38:58;;;;;;;;;0.00;0.00;;;;;38.69;12.23;100945.56;5016238;28;67347;-63
2022/08/13 12:41:23;;;;;;;;;0.00;0.00;;;;;38.69;12.61;100945.56;5008308;28;45382;-63
2022/08/13 12:43:48;;;;;;;;;1.67;1.00;;;;;38.65;12.73;100942.47;5017397;28;72125;-63
2022/08/13 12:46:14;;;;;;;;;1.33;0.33;;;;;38.66;12.18;100941.38;5017617;28;65932;-63
2022/08/13 12:48:39;;;;;;;;;0.00;0.00;;;;;38.65;12.30;100934.13;5011069;28;45609;-63
2022/08/13 12:51:04;;;;;;;;;1.00;1.00;;;;;38.62;12.35;100936.59;5003138;28;63024;-64
2022/08/13 12:53:30;;;;;;;;;0.00;0.00;;;;;38.58;12.52;100930.75;5001705;28;46022;-63
2022/08/13 12:55:55;;;;;;;;;0.00;0.00;;;;;38.57;11.86;100931.84;5013173;28;67206;-63
2022/08/13 12:58:23;;;;;;;;;0.67;0.67;;;;;38.46;12.10;100936.44;5016760;28;69086;-63
2022/08/13 13:00:51;;;;;;;;;1.00;1.00;;;;;38.38;11.99;100931.34;5009604;28;45776;-63
2022/08/13 13:03:16;;;;;;;;;1.00;1.00;;;;;38.24;12.48;100930.88;5009178;28;45376;-63
2022/08/13 13:05:48;;;;;;;;;0.00;0.00;;;;;38.12;12.50;100932.94;5016528;28;45467;-64
2022/08/13 13:08:20;;;;;;;;;0.00;0.00;;;;;38.04;12.35;100914.81;5018908;28;45260;-63
2022/08/13 13:10:46;;;;;;;;;0.00;0.00;;;;;38.00;12.41;100917.25;5013526;28;45357;-64
2022/08/13 13:13:13;;;;;;;;;0.00;0.00;;;;;37.98;12.29;100916.69;5010740;28;46262;-63
2022/08/13 13:15:41;;;;;;;;;0.00;0.00;;;;;37.94;12.02;100909.13;5016706;28;45482;-64
2022/08/13 13:18:14;;;;;;;;;0.67;0.67;;;;;37.74;12.75;100908.56;5017478;28;59234;-64
2022/08/13 13:20:41;;;;;;;;;0.00;0.00;;;;;37.64;12.40;100908.44;5005600;28;45860;-64
2022/08/13 13:23:09;;;;;;;;;0.00;0.00;;;;;37.60;12.45;100906.41;5013955;28;46370;-65
2022/08/13 13:25:34;;;;;;;;;0.00;0.00;;;;;37.54;12.74;100892.47;5004923;28;45539;-63
2022/08/13 13:28:04;;;;;;;;;0.00;0.00;;;;;37.47;12.53;100890.97;5013365;28;45416;-63
2022/08/13 13:30:30;;;;;;;;;0.00;0.00;;;;;37.45;12.88;100887.63;5000960;28;45285;-64
2022/08/13 13:32:56;;;;;;;;;0.33;0.33;;;;;37.37;12.77;100883.34;5009798;28;46112;-64
2022/08/13 13:35:21;;;;;;;;;0.00;0.00;;;;;37.30;12.61;100890.97;5018000;28;45749;-64
2022/08/13 13:37:46;;;;;;;;;0.00;0.00;;;;;37.24;12.67;100895.59;5017742;28;45502;-63
2022/08/13 13:40:12;;;;;;;;;0.00;0.00;;;;;37.15;13.03;100886.84;5018499;28;45330;-64
2022/08/13 13:42:40;;;;;;;;;0.00;0.00;;;;;37.13;12.84;100874.34;5017211;28;46888;-64
2022/08/13 13:45:07;;;;;;;;;0.00;0.00;;;;;37.06;13.02;100877.28;5019087;28;45470;-63
2022/08/13 13:47:32;;;;;;;;;0.33;0.33;;;;;37.03;12.85;100875.03;5019098;28;46472;-64
2022/08/13 13:49:58;;;;;;;;;3.00;0.00;;;;;37.01;13.26;100872.47;5014191;28;61525;-64
2022/08/13 13:52:23;;;;;;;;;0.00;0.00;;;;;37.01;12.64;100877.19;5005726;28;74611;-64
2022/08/13 13:54:50;;;;;;;;;1.33;0.00;;;;;36.96;13.26;100875.19;5019575;28;70011;-64
2022/08/13 13:57:16;;;;;;;;;0.00;0.00;;;;;36.96;12.63;100866.88;5020299;28;45551;-64
2022/08/13 13:59:41;;;;;;;;;0.00;0.00;;;;;36.97;13.12;100874.09;5019545;28;45509;-65
2022/08/13 14:02:07;;;;;;;;;0.00;0.00;;;;;36.85;13.12;100870.56;5013337;28;45450;-65
2022/08/13 14:04:32;;;;;;;;;0.00;0.00;;;;;36.75;13.06;100872.03;5020064;28;45331;-64
2022/08/13 14:07:04;;;;;;;;;0.67;0.67;;;;;36.69;13.20;100866.66;5018191;28;64695;-64
2022/08/13 14:09:29;;;;;;;;;0.67;0.67;;;;;36.67;13.00;100864.13;5010318;28;45305;-64
2022/08/13 14:11:56;;;;;;;;;1.00;1.00;;;;;36.60;13.04;100863.47;5015392;28;45624;-65
2022/08/13 14:14:21;;;;;;;;;0.00;0.00;;;;;36.51;13.26;100862.19;5001465;28;45420;-64
2022/08/13 14:16:48;;;;;;;;;0.00;0.00;;;;;36.43;13.48;100855.13;5013373;28;45389;-64
2022/08/13 14:19:14;;;;;;;;;0.00;0.00;;;;;36.41;13.13;100851.75;5021185;28;45306;-63
2022/08/13 14:21:39;;;;;;;;;0.00;0.00;;;;;36.36;13.10;100851.66;5018233;28;45277;-64
2022/08/13 14:24:05;;;;;;;;;0.00;0.00;;;;;36.28;12.81;100852.03;5019023;28;45390;-64
2022/08/13 14:26:30;;;;;;;;;0.00;0.00;;;;;36.20;13.36;100862.41;5011742;28;66909;-64
2022/08/13 14:28:56;;;;;;;;;0.00;0.00;;;;;36.16;13.26;100838.25;5007568;28;70579;-64
2022/08/13 14:31:22;;;;;;;;;1.00;0.00;;;;;36.09;13.73;100853.06;5007777;28;45288;-64
2022/08/13 14:33:48;;;;;;;;;0.33;0.33;;;;;36.00;13.08;100846.22;5013774;28;45413;-64
2022/08/13 14:36:15;;;;;;;;;0.00;0.00;;;;;35.97;13.90;100845.88;5019765;28;45328;-63
2022/08/13 14:38:41;;;;;;;;;0.00;0.00;;;;;35.95;14.15;100846.13;5013630;28;45566;-65
2022/08/13 14:41:06;;;;;;;;;0.00;0.00;;;;;35.91;13.61;100850.47;5010071;28;46243;-64
2022/08/13 14:43:32;;;;;;;;;0.00;0.00;;;;;35.85;13.52;100845.91;5013058;28;53039;-64
2022/08/13 14:45:59;;;;;;;;;0.67;0.67;;;;;35.83;13.73;100845.28;5016456;28;45356;-64
2022/08/13 14:48:26;;;;;;;;;0.00;0.00;;;;;35.78;13.60;100841.31;5009973;28;45553;-63
2022/08/13 14:50:55;;;;;;;;;0.67;0.67;;;;;35.74;13.34;100837.38;5000407;28;46335;-63
2022/08/13 14:53:22;;;;;;;;;0.67;0.67;;;;;35.66;13.54;100829.47;5001642;28;45349;-64
2022/08/13 14:55:49;;;;;;;;;0.00;0.00;;;;;35.57;13.10;100823.47;5007175;28;45457;-64
2022/08/13 14:58:15;;;;;;;;;0.33;0.33;;;;;35.54;13.71;100831.38;5019675;28;45214;-64
2022/08/13 15:00:44;;;;;;;;;0.00;0.00;;;;;35.52;13.73;100826.09;5001132;28;45424;-63
2022/08/13 15:03:11;;;;;;;;;1.00;1.00;;;;;35.49;13.23;100823.84;5011460;28;45491;-63
2022/08/13 15:05:37;;;;;;;;;1.00;0.00;;;;;35.44;13.56;100824.56;5019516;28;45289;-63
2022/08/13 15:08:02;;;;;;;;;0.67;0.67;;;;;35.40;13.24;100826.13;5009801;28;45483;-64
2022/08/13 15:10:29;;;;;;;;;0.00;0.00;;;;;35.34;13.58;100816.03;5013413;28;47012;-63
2022/08/13 15:12:56;;;;;;;;;1.00;1.00;;;;;35.35;13.89;100812.19;5019297;28;45332;-64
2022/08/13 15:15:23;;;;;;;;;0.00;0.00;;;;;35.35;14.07;100817.72;5007825;28;45253;-63
2022/08/13 15:17:50;;;;;;;;;0.00;0.00;;;;;35.36;14.29;100813.88;5012695;28;45554;-64
2022/08/13 15:20:19;;;;;;;;;0.00;0.00;;;;;35.35;13.78;100816.88;5006103;28;46249;-63
2022/08/13 15:22:45;;;;;;;;;0.00;0.00;;;;;35.30;13.69;100817.56;5018820;28;45766;-64
2022/08/13 15:25:12;;;;;;;;;0.00;0.00;;;;;35.29;13.88;100810.34;5006313;28;45667;-64
2022/08/13 15:27:39;;;;;;;;;1.00;1.00;;;;;35.29;13.70;100815.88;5012139;28;45338;-64
2022/08/13 15:30:09;;;;;;;;;0.00;0.00;;;;;35.26;13.77;100803.38;4999829;28;45456;-63
2022/08/13 15:32:35;;;;;;;;;0.67;0.67;;;;;35.25;13.78;100807.25;5014465;28;45288;-64
2022/08/13 15:35:02;;;;;;;;;1.00;1.00;;;;;35.24;14.11;100804.72;5012004;28;45376;-64
2022/08/13 15:37:27;;;;;;;;;0.00;0.00;;;;;35.14;14.19;100797.03;5011154;28;45771;-64
2022/08/13 15:39:53;;;;;;;;;0.00;0.00;;;;;35.10;13.93;100798.59;5001275;28;46241;-63
2022/08/13 15:42:19;;;;;;;;;1.00;1.00;;;;;35.11;13.68;100803.06;5016179;28;46218;-63
2022/08/13 15:44:45;;;;;;;;;0.67;0.67;;;;;35.08;13.88;100803.53;5010944;28;45411;-63
2022/08/13 15:47:16;;;;;;;;;0.00;0.00;;;;;34.95;14.21;100801.81;5010672;28;45355;-64
2022/08/13 15:49:45;;;;;;;;;0.00;0.00;;;;;34.83;14.49;100792.69;5012925;28;47054;-64
2022/08/13 15:52:13;;;;;;;;;0.00;0.00;;;;;34.84;14.56;100789.69;5008607;28;45372;-63
2022/08/13 15:54:38;;;;;;;;;0.00;0.00;;;;;34.87;13.97;100788.38;5005981;28;45233;-63
2022/08/13 15:57:05;;;;;;;;;0.00;0.00;;;;;34.88;14.30;100790.91;5006602;28;67549;-64
2022/08/13 15:59:31;;;;;;;;;3.00;2.00;;;;;34.92;14.30;100786.56;5005832;28;46323;-64
2022/08/13 16:01:59;;;;;;;;;0.00;0.00;;;;;34.88;14.42;100777.09;5001846;28;45294;-64
2022/08/13 16:04:26;;;;;;;;;2.00;2.00;;;;;34.85;14.14;100773.97;5006276;28;45455;-64
2022/08/13 16:06:52;;;;;;;;;0.00;0.00;;;;;34.83;14.45;100774.16;5006518;28;45374;-64
2022/08/13 16:09:18;;;;;;;;;0.00;0.00;;;;;34.85;14.23;100779.47;5010359;28;71887;-64
2022/08/13 16:11:45;;;;;;;;;1.00;1.00;;;;;34.82;14.74;100777.19;5004017;28;69455;-64
2022/08/13 16:14:12;;;;;;;;;0.00;0.00;;;;;34.78;14.60;100779.56;5017147;28;45300;-64
2022/08/13 16:16:38;;;;;;;;;0.67;0.67;;;;;34.78;14.81;100783.19;5017502;28;45408;-64
2022/08/13 16:19:04;;;;;;;;;0.00;0.00;;;;;34.79;14.85;100782.09;5003765;28;72427;-63
2022/08/13 16:21:44;;;;;;;;;0.67;0.67;;;;;34.78;15.02;100782.34;5013163;28;45681;-63
2022/08/13 16:24:10;;;;;;;;;0.67;0.67;;;;;34.80;14.68;100788.47;5016156;28;45656;-63
2022/08/13 16:26:36;;;;;;;;;0.67;0.67;;;;;34.79;14.39;100778.50;5012111;28;45304;-64
2022/08/13 16:29:02;;;;;;;;;0.67;0.67;;;;;34.76;14.52;100779.81;5012108;28;45352;-64
2022/08/13 16:31:32;;;;;;;;;0.67;0.67;;;;;34.74;14.79;100779.19;5012442;28;45382;-64
2022/08/13 16:33:58;;;;;;;;;1.67;1.67;;;;;34.74;15.21;100770.09;5007292;28;45233;-64
2022/08/13 16:36:24;;;;;;;;;0.67;0.67;;;;;34.72;14.98;100767.56;5000700;28;45585;-64
2022/08/13 16:38:51;;;;;;;;;1.00;1.00;;;;;34.69;14.91;100764.44;5019539;28;45518;-63
2022/08/13 16:41:16;;;;;;;;;0.00;0.00;;;;;34.64;14.73;100751.38;5002980;28;45533;-64
2022/08/13 16:43:42;;;;;;;;;0.67;0.67;;;;;34.63;14.76;100747.75;5010178;28;45304;-63
2022/08/13 16:46:08;;;;;;;;;0.67;0.00;;;;;34.62;15.10;100746.06;5017643;28;45543;-64
2022/08/13 16:48:34;;;;;;;;;0.00;0.00;;;;;34.60;14.68;100745.47;5005561;28;71051;-64
2022/08/13 16:51:00;;;;;;;;;0.00;0.00;;;;;34.56;14.92;100741.50;5015774;28;45391;-64
2022/08/13 16:53:25;;;;;;;;;0.00;0.00;;;;;34.55;14.89;100736.19;5010095;28;45578;-62
2022/08/13 16:55:51;;;;;;;;;0.75;0.00;;;;;34.53;14.54;100747.50;5013458;28;68441;-63
2022/08/13 16:58:21;;;;;;;;;0.00;0.00;;;;;34.48;14.80;100746.53;5009963;28;45982;-63
2022/08/13 17:00:46;;;;;;;;;0.00;0.00;;;;;34.46;14.67;100753.13;5011311;28;45869;-63
2022/08/13 17:11:37;;;;;;;;;0.00;0.00;;;;;34.36;14.72;100741.81;5012988;28;45411;-64
2022/08/13 17:14:06;;;;;;;;;0.00;0.00;;;;;34.34;15.17;100745.88;5008272;28;45457;-63
2022/08/13 17:16:31;;;;;;;;;0.00;0.00;;;;;34.31;14.97;100744.41;5012456;28;45346;-63
2022/08/13 17:19:00;;;;;;;;;0.67;0.00;;;;;34.26;15.00;100741.50;5011490;28;46183;-63
2022/08/13 17:21:31;;;;;;;;;0.00;0.00;;;;;34.23;14.77;100742.00;5018673;28;45379;-63
2022/08/13 17:24:00;;;;;;;;;1.00;1.00;;;;;34.21;15.02;100746.91;5008714;28;45339;-63
2022/08/13 17:26:29;;;;;;;;;0.67;0.67;;;;;34.19;14.90;100741.63;5011040;28;45407;-63
2022/08/13 17:28:55;;;;;;;;;1.00;1.00;;;;;34.17;15.05;100740.19;5009751;28;45548;-63
2022/08/13 17:31:23;;;;;;;;;0.67;0.67;;;;;34.15;14.85;100740.41;5009091;28;45373;-63
2022/08/13 17:33:49;;;;;;;;;0.00;0.00;;;;;34.15;15.05;100736.84;5016994;28;45378;-63
2022/08/13 17:36:16;;;;;;;;;0.00;0.00;;;;;34.13;15.18;100731.53;5011699;28;45297;-63
2022/08/13 17:38:42;;;;;;;;;0.00;0.00;;;;;34.08;14.95;100714.84;5009592;28;45332;-63
2022/08/13 17:41:08;;;;;;;;;1.00;1.00;;;;;34.04;15.15;100714.50;5009111;28;45589;-63
2022/08/13 17:43:34;;;;;;;;;0.33;0.33;;;;;34.03;15.01;100718.31;5002493;28;45343;-63
2022/08/13 17:45:59;;;;;;;;;1.00;1.00;;;;;34.02;14.77;100724.06;5001415;28;69329;-64